PWSweather.com
Personal Weather Stations
Station Observations
GRD01
Warsaw, LesznoPL 05-084

WarsawLesznoPL 05-084

Lat: 52.257404, Lon: 20.564847

Elevation: 298

Station Type: WH3080

http://pogoda.kampinos.waw.pl

High Low Average
Temperature 60.8°F16.0°C 41.7°F5.4°C 50.4°F10.2°C
Dew Point 45.2°F7.3°C 33.9°F1.1°C 39.6°F4.2°C
Winds 12.1 mph 19.5 kmh Calm Calm 3.0 mph SSW4.8 kmh SSW
Wind Gusts 23.5 mph37.8 kmh -- 7.0 mph11.3 kmh
Humidity 94% 37% 69%
Pressure 29.79 in1008.8 mb 29.69 in1005.4 mb -
Precipitation 0.04 in1.0 mm - -
Hour Temp Dew Point Humidity Winds Wind Gusts Pressure Precip Precip Rate Daily Precip Total
12:00 AM 43.9°F6.6°C 41.1°F5.1°C 90% Calm Calm 3.1 mph5.0 kmh 29.69 in1005.4 mb 0.00 in0.0 mm 0.00 in0.0 mm 0.00 in0.0 mm
12:15 AM 43.5°F6.4°C 40.8°F4.9°C 90% 0.7 mph SSW1.1 kmh SSW 3.1 mph5.0 kmh 29.69 in1005.4 mb 0.00 in0.0 mm 0.00 in0.0 mm 0.00 in0.0 mm
12:30 AM 43.5°F6.4°C 40.8°F4.9°C 90% 2.2 mph W3.5 kmh W 5.4 mph8.7 kmh 29.69 in1005.4 mb 0.00 in0.0 mm 0.00 in0.0 mm 0.00 in0.0 mm
12:45 AM 43.3°F6.3°C 40.6°F4.8°C 90% 0.7 mph SW1.1 kmh SW 4.5 mph7.2 kmh 29.70 in1005.8 mb 0.00 in0.0 mm 0.00 in0.0 mm 0.00 in0.0 mm
01:00 AM 43.3°F6.3°C 40.6°F4.8°C 90% 3.1 mph SW5.0 kmh SW 3.8 mph6.1 kmh 29.70 in1005.8 mb 0.00 in0.0 mm 0.00 in0.0 mm 0.00 in0.0 mm
01:15 AM 43.2°F6.2°C 40.7°F4.8°C 91% 3.8 mph WSW6.1 kmh WSW 5.4 mph8.7 kmh 29.70 in1005.8 mb 0.00 in0.0 mm 0.00 in0.0 mm 0.00 in0.0 mm
01:30 AM 42.8°F6.0°C 40.4°F4.7°C 91% 3.1 mph SW5.0 kmh SW 4.5 mph7.2 kmh 29.70 in1005.8 mb 0.00 in0.0 mm 0.00 in0.0 mm 0.00 in0.0 mm
01:45 AM 42.6°F5.9°C 39.9°F4.4°C 90% 2.2 mph WSW3.5 kmh WSW 4.5 mph7.2 kmh 29.71 in1006.1 mb 0.00 in0.0 mm 0.00 in0.0 mm 0.00 in0.0 mm
02:00 AM 42.4°F5.8°C 39.7°F4.3°C 90% 0.7 mph WSW1.1 kmh WSW 4.5 mph7.2 kmh 29.71 in1006.1 mb 0.00 in0.0 mm 0.00 in0.0 mm 0.00 in0.0 mm
02:15 AM 42.1°F5.6°C 39.4°F4.1°C 90% Calm Calm 3.1 mph5.0 kmh 29.71 in1006.1 mb 0.00 in0.0 mm 0.00 in0.0 mm 0.00 in0.0 mm
02:30 AM 41.9°F5.5°C 39.2°F4.0°C 90% 0.7 mph WSW1.1 kmh WSW 3.8 mph6.1 kmh 29.71 in1006.1 mb 0.00 in0.0 mm 0.00 in0.0 mm 0.00 in0.0 mm
02:45 AM 41.7°F5.4°C 39.3°F4.1°C 91% 2.2 mph SW3.5 kmh SW 3.8 mph6.1 kmh 29.72 in1006.4 mb 0.00 in0.0 mm 0.00 in0.0 mm 0.00 in0.0 mm
03:00 AM 41.9°F5.5°C 39.5°F4.2°C 91% 3.1 mph S5.0 kmh S 5.4 mph8.7 kmh 29.72 in1006.4 mb 0.00 in0.0 mm 0.00 in0.0 mm 0.00 in0.0 mm
03:15 AM 41.9°F5.5°C 39.5°F4.2°C 91% 3.1 mph SW5.0 kmh SW 4.5 mph7.2 kmh 29.72 in1006.4 mb 0.00 in0.0 mm 0.00 in0.0 mm 0.00 in0.0 mm
03:30 AM 42.4°F5.8°C 40.3°F4.6°C 92% 2.2 mph SSW3.5 kmh SSW 6.9 mph11.1 kmh 29.72 in1006.4 mb 0.00 in0.0 mm 0.00 in0.0 mm 0.00 in0.0 mm
03:45 AM 42.6°F5.9°C 40.5°F4.7°C 92% 2.2 mph WSW3.5 kmh WSW 4.5 mph7.2 kmh 29.72 in1006.4 mb 0.00 in0.0 mm 0.00 in0.0 mm 0.00 in0.0 mm
04:00 AM 42.4°F5.8°C 40.3°F4.6°C 92% 1.6 mph SW2.6 kmh SW 6.0 mph9.7 kmh 29.73 in1006.8 mb 0.00 in0.0 mm 0.00 in0.0 mm 0.00 in0.0 mm
04:15 AM 42.4°F5.8°C 40.3°F4.6°C 92% 1.6 mph SSW2.6 kmh SSW 6.0 mph9.7 kmh 29.73 in1006.8 mb 0.00 in0.0 mm 0.00 in0.0 mm 0.00 in0.0 mm
04:30 AM 42.3°F5.7°C 40.1°F4.5°C 92% 2.2 mph S3.5 kmh S 5.4 mph8.7 kmh 29.73 in1006.8 mb 0.00 in0.0 mm 0.00 in0.0 mm 0.00 in0.0 mm
04:45 AM 42.3°F5.7°C 40.4°F4.7°C 93% 6.0 mph SW9.7 kmh SW 6.9 mph11.1 kmh 29.73 in1006.8 mb 0.00 in0.0 mm 0.00 in0.0 mm 0.00 in0.0 mm
05:00 AM 42.3°F5.7°C 40.4°F4.7°C 93% 4.5 mph SW7.2 kmh SW 5.4 mph8.7 kmh 29.74 in1007.1 mb 0.00 in0.0 mm 0.00 in0.0 mm 0.00 in0.0 mm
05:15 AM 42.4°F5.8°C 40.6°F4.8°C 93% 1.6 mph WSW2.6 kmh WSW 4.5 mph7.2 kmh 29.74 in1007.1 mb 0.00 in0.0 mm 0.00 in0.0 mm 0.00 in0.0 mm
05:30 AM 42.8°F6.0°C 40.9°F4.9°C 93% 2.2 mph SW3.5 kmh SW 4.5 mph7.2 kmh 29.75 in1007.5 mb 0.00 in0.0 mm 0.00 in0.0 mm 0.00 in0.0 mm
05:45 AM 43.2°F6.2°C 41.6°F5.3°C 94% 3.1 mph SW5.0 kmh SW 6.9 mph11.1 kmh 29.74 in1007.1 mb 0.00 in0.0 mm 0.00 in0.0 mm 0.00 in0.0 mm
06:00 AM 43.9°F6.6°C 42.3°F5.7°C 94% 0.7 mph SSE1.1 kmh SSE 6.0 mph9.7 kmh 29.75 in1007.5 mb 0.00 in0.0 mm 0.00 in0.0 mm 0.00 in0.0 mm
06:15 AM 44.4°F6.9°C 42.8°F6.0°C 94% 3.1 mph SSW5.0 kmh SSW 8.3 mph13.4 kmh 29.76 in1007.8 mb 0.00 in0.0 mm 0.00 in0.0 mm 0.00 in0.0 mm
06:30 AM 45.1°F7.3°C 43.5°F6.4°C 94% 4.5 mph WNW7.2 kmh WNW 6.0 mph9.7 kmh 29.76 in1007.8 mb 0.00 in0.0 mm 0.00 in0.0 mm 0.00 in0.0 mm
06:45 AM 45.9°F7.7°C 43.4°F6.3°C 91% 5.4 mph W8.7 kmh W 10.7 mph17.2 kmh 29.76 in1007.8 mb 0.00 in0.0 mm 0.00 in0.0 mm 0.00 in0.0 mm
07:00 AM 46.2°F7.9°C 43.4°F6.3°C 90% 4.5 mph W7.2 kmh W 9.8 mph15.8 kmh 29.77 in1008.1 mb 0.04 in1.0 mm 0.05 in1.3 mm 0.04 in1.0 mm
07:15 AM 46.9°F8.3°C 43.9°F6.6°C 89% 3.8 mph WNW6.1 kmh WNW 8.3 mph13.4 kmh 29.76 in1007.8 mb 0.04 in1.0 mm 0.00 in0.0 mm 0.04 in1.0 mm
07:30 AM 47.7°F8.7°C 44.0°F6.7°C 87% 5.4 mph SW8.7 kmh SW 9.2 mph14.8 kmh 29.78 in1008.5 mb 0.04 in1.0 mm 0.00 in0.0 mm 0.04 in1.0 mm
07:45 AM 48.4°F9.1°C 44.1°F6.7°C 85% 3.8 mph WSW6.1 kmh WSW 9.8 mph15.8 kmh 29.77 in1008.1 mb 0.04 in1.0 mm 0.00 in0.0 mm 0.04 in1.0 mm
08:00 AM 49.1°F9.5°C 44.2°F6.8°C 83% 6.0 mph WSW9.7 kmh WSW 9.2 mph14.8 kmh 29.77 in1008.1 mb 0.00 in0.0 mm 0.00 in0.0 mm 0.04 in1.0 mm
08:15 AM 49.8°F9.9°C 44.2°F6.8°C 81% 4.5 mph WSW7.2 kmh WSW 9.2 mph14.8 kmh 29.78 in1008.5 mb 0.00 in0.0 mm 0.00 in0.0 mm 0.04 in1.0 mm
08:30 AM 50.7°F10.4°C 44.8°F7.1°C 80% 6.9 mph SW11.1 kmh SW 10.7 mph17.2 kmh 29.78 in1008.5 mb 0.00 in0.0 mm 0.00 in0.0 mm 0.04 in1.0 mm
08:45 AM 51.8°F11.0°C 45.2°F7.3°C 78% 6.9 mph SW11.1 kmh SW 10.7 mph17.2 kmh 29.79 in1008.8 mb 0.00 in0.0 mm 0.00 in0.0 mm 0.04 in1.0 mm
09:00 AM 52.0°F11.1°C 44.3°F6.8°C 75% 6.0 mph SSW9.7 kmh SSW 12.1 mph19.5 kmh 29.78 in1008.5 mb 0.00 in0.0 mm 0.00 in0.0 mm 0.04 in1.0 mm
09:15 AM 53.2°F11.8°C 44.8°F7.1°C 73% 7.6 mph SSW12.2 kmh SSW 12.1 mph19.5 kmh 29.78 in1008.5 mb 0.00 in0.0 mm 0.00 in0.0 mm 0.04 in1.0 mm
09:30 AM 54.0°F12.2°C 45.1°F7.3°C 72% 7.6 mph WSW12.2 kmh WSW 10.7 mph17.2 kmh 29.79 in1008.8 mb 0.00 in0.0 mm 0.00 in0.0 mm 0.04 in1.0 mm
09:45 AM 55.2°F12.9°C 45.2°F7.3°C 69% 6.0 mph WNW9.7 kmh WNW 11.4 mph18.3 kmh 29.79 in1008.8 mb 0.00 in0.0 mm 0.00 in0.0 mm 0.04 in1.0 mm
10:00 AM 55.8°F13.2°C 44.2°F6.8°C 65% 6.9 mph SW11.1 kmh SW 12.1 mph19.5 kmh 29.79 in1008.8 mb 0.00 in0.0 mm 0.00 in0.0 mm 0.04 in1.0 mm
10:15 AM 56.1°F13.4°C 43.7°F6.5°C 63% 8.3 mph SW13.4 kmh SW 11.4 mph18.3 kmh 29.79 in1008.8 mb 0.00 in0.0 mm 0.00 in0.0 mm 0.04 in1.0 mm
10:30 AM 56.7°F13.7°C 42.9°F6.1°C 60% 6.0 mph SW9.7 kmh SW 13.6 mph21.9 kmh 29.78 in1008.5 mb 0.00 in0.0 mm 0.00 in0.0 mm 0.04 in1.0 mm
10:45 AM 57.0°F13.9°C 43.3°F6.3°C 60% 9.8 mph WSW15.8 kmh WSW 14.5 mph23.3 kmh 29.78 in1008.5 mb 0.00 in0.0 mm 0.00 in0.0 mm 0.04 in1.0 mm
11:00 AM 57.4°F14.1°C 43.6°F6.4°C 60% 9.2 mph S14.8 kmh S 13.0 mph20.9 kmh 29.79 in1008.8 mb 0.00 in0.0 mm 0.00 in0.0 mm 0.04 in1.0 mm
11:15 AM 56.8°F13.8°C 41.3°F5.2°C 56% 12.1 mph SW19.5 kmh SW 18.3 mph29.5 kmh 29.79 in1008.8 mb 0.00 in0.0 mm 0.00 in0.0 mm 0.04 in1.0 mm
11:30 AM 54.7°F12.6°C 39.3°F4.1°C 56% 9.8 mph N15.8 kmh N 23.5 mph37.8 kmh 29.78 in1008.5 mb 0.00 in0.0 mm 0.00 in0.0 mm 0.04 in1.0 mm
11:45 AM 53.6°F12.0°C 40.9°F4.9°C 62% 3.8 mph N6.1 kmh N 10.7 mph17.2 kmh 29.78 in1008.5 mb 0.00 in0.0 mm 0.00 in0.0 mm 0.04 in1.0 mm
12:00 PM 55.4°F13.0°C 41.7°F5.4°C 60% 6.0 mph NNW9.7 kmh NNW 10.7 mph17.2 kmh 29.78 in1008.5 mb 0.00 in0.0 mm 0.00 in0.0 mm 0.04 in1.0 mm
12:15 PM 56.1°F13.4°C 41.5°F5.3°C 58% 4.5 mph N7.2 kmh N 7.6 mph12.2 kmh 29.77 in1008.1 mb 0.00 in0.0 mm 0.00 in0.0 mm 0.04 in1.0 mm
12:30 PM 56.1°F13.4°C 41.1°F5.1°C 57% 7.6 mph NW12.2 kmh NW 9.8 mph15.8 kmh 29.78 in1008.5 mb 0.00 in0.0 mm 0.00 in0.0 mm 0.04 in1.0 mm
12:45 PM 55.4°F13.0°C 40.0°F4.4°C 56% 2.2 mph NNW3.5 kmh NNW 8.3 mph13.4 kmh 29.77 in1008.1 mb 0.00 in0.0 mm 0.00 in0.0 mm 0.04 in1.0 mm
01:00 PM 55.9°F13.3°C 40.5°F4.7°C 56% 0.7 mph NW1.1 kmh NW 11.4 mph18.3 kmh 29.77 in1008.1 mb 0.00 in0.0 mm 0.00 in0.0 mm 0.04 in1.0 mm
01:15 PM 57.6°F14.2°C 39.6°F4.2°C 51% 8.3 mph NNE13.4 kmh NNE 11.4 mph18.3 kmh 29.77 in1008.1 mb 0.00 in0.0 mm 0.00 in0.0 mm 0.04 in1.0 mm
01:30 PM 57.4°F14.1°C 39.4°F4.1°C 51% 5.4 mph NNW8.7 kmh NNW 9.8 mph15.8 kmh 29.78 in1008.5 mb 0.00 in0.0 mm 0.00 in0.0 mm 0.04 in1.0 mm
01:45 PM 57.4°F14.1°C 38.4°F3.6°C 49% 3.1 mph WNW5.0 kmh WNW 9.8 mph15.8 kmh 29.77 in1008.1 mb 0.00 in0.0 mm 0.00 in0.0 mm 0.04 in1.0 mm
02:00 PM 57.7°F14.3°C 37.6°F3.1°C 47% 4.5 mph W7.2 kmh W 7.6 mph12.2 kmh 29.77 in1008.1 mb 0.00 in0.0 mm 0.00 in0.0 mm 0.04 in1.0 mm
02:15 PM 57.9°F14.4°C 38.3°F3.5°C 48% 6.9 mph NW11.1 kmh NW 11.4 mph18.3 kmh 29.76 in1007.8 mb 0.00 in0.0 mm 0.00 in0.0 mm 0.04 in1.0 mm
02:30 PM 59.0°F15.0°C 38.8°F3.8°C 47% 3.1 mph WNW5.0 kmh WNW 13.0 mph20.9 kmh 29.77 in1008.1 mb 0.00 in0.0 mm 0.00 in0.0 mm 0.04 in1.0 mm
02:45 PM 60.1°F15.6°C 37.5°F3.1°C 43% 3.1 mph WSW5.0 kmh WSW 13.0 mph20.9 kmh 29.76 in1007.8 mb 0.00 in0.0 mm 0.00 in0.0 mm 0.04 in1.0 mm
03:00 PM 60.3°F15.7°C 37.1°F2.8°C 42% 4.5 mph WSW7.2 kmh WSW 12.1 mph19.5 kmh 29.76 in1007.8 mb 0.00 in0.0 mm 0.00 in0.0 mm 0.04 in1.0 mm
03:15 PM 60.3°F15.7°C 37.1°F2.8°C 42% 6.9 mph NNW11.1 kmh NNW 11.4 mph18.3 kmh 29.75 in1007.5 mb 0.00 in0.0 mm 0.00 in0.0 mm 0.04 in1.0 mm
03:30 PM 60.4°F15.8°C 36.0°F2.2°C 40% 6.0 mph WSW9.7 kmh WSW 9.8 mph15.8 kmh 29.75 in1007.5 mb 0.00 in0.0 mm 0.00 in0.0 mm 0.04 in1.0 mm
03:45 PM 60.8°F16.0°C 36.9°F2.7°C 41% 3.8 mph SSW6.1 kmh SSW 7.6 mph12.2 kmh 29.75 in1007.5 mb 0.00 in0.0 mm 0.00 in0.0 mm 0.04 in1.0 mm
04:00 PM 60.8°F16.0°C 36.3°F2.4°C 40% 3.1 mph S5.0 kmh S 8.3 mph13.4 kmh 29.75 in1007.5 mb 0.00 in0.0 mm 0.00 in0.0 mm 0.04 in1.0 mm
04:15 PM 60.6°F15.9°C 36.1°F2.3°C 40% 3.1 mph N5.0 kmh N 6.9 mph11.1 kmh 29.74 in1007.1 mb 0.00 in0.0 mm 0.00 in0.0 mm 0.04 in1.0 mm
04:30 PM 60.3°F15.7°C 33.9°F1.1°C 37% 6.0 mph SW9.7 kmh SW 9.8 mph15.8 kmh 29.74 in1007.1 mb 0.00 in0.0 mm 0.00 in0.0 mm 0.04 in1.0 mm
04:45 PM 60.1°F15.6°C 35.0°F1.7°C 39% 6.0 mph WSW9.7 kmh WSW 6.9 mph11.1 kmh 29.74 in1007.1 mb 0.00 in0.0 mm 0.00 in0.0 mm 0.04 in1.0 mm
05:00 PM 59.7°F15.4°C 34.0°F1.1°C 38% 3.1 mph WSW5.0 kmh WSW 6.0 mph9.7 kmh 29.74 in1007.1 mb 0.00 in0.0 mm 0.00 in0.0 mm 0.04 in1.0 mm
05:15 PM 59.5°F15.3°C 35.2°F1.8°C 40% 1.6 mph WSW2.6 kmh WSW 5.4 mph8.7 kmh 29.74 in1007.1 mb 0.00 in0.0 mm 0.00 in0.0 mm 0.04 in1.0 mm
05:30 PM 59.0°F15.0°C 35.3°F1.8°C 41% 2.2 mph NE3.5 kmh NE 4.5 mph7.2 kmh 29.74 in1007.1 mb 0.00 in0.0 mm 0.00 in0.0 mm 0.04 in1.0 mm
05:45 PM 58.5°F14.7°C 34.8°F1.6°C 41% 2.2 mph S3.5 kmh S 3.1 mph5.0 kmh 29.74 in1007.1 mb 0.00 in0.0 mm 0.00 in0.0 mm 0.04 in1.0 mm
06:00 PM 57.9°F14.4°C 35.5°F1.9°C 43% 0.7 mph SSE1.1 kmh SSE 1.6 mph2.6 kmh 29.74 in1007.1 mb 0.00 in0.0 mm 0.00 in0.0 mm 0.04 in1.0 mm
06:15 PM 57.0°F13.9°C 36.4°F2.4°C 46% Calm Calm 0.7 mph1.1 kmh 29.74 in1007.1 mb 0.00 in0.0 mm 0.00 in0.0 mm 0.04 in1.0 mm
06:30 PM 55.8°F13.2°C 37.4°F3.0°C 50% Calm Calm -- 29.74 in1007.1 mb 0.00 in0.0 mm 0.00 in0.0 mm 0.04 in1.0 mm
06:45 PM 54.1°F12.3°C 39.2°F4.0°C 57% Calm Calm -- 29.74 in1007.1 mb 0.00 in0.0 mm 0.00 in0.0 mm 0.04 in1.0 mm
07:00 PM 52.9°F11.6°C 39.8°F4.3°C 61% Calm Calm 1.6 mph2.6 kmh 29.75 in1007.5 mb 0.00 in0.0 mm 0.00 in0.0 mm 0.04 in1.0 mm
07:15 PM 51.8°F11.0°C 39.2°F4.0°C 62% 0.7 mph E1.1 kmh E 1.6 mph2.6 kmh 29.76 in1007.8 mb 0.00 in0.0 mm 0.00 in0.0 mm 0.04 in1.0 mm
07:30 PM 50.2°F10.1°C 38.5°F3.6°C 64% 1.6 mph NE2.6 kmh NE 2.2 mph3.5 kmh 29.75 in1007.5 mb 0.00 in0.0 mm 0.00 in0.0 mm 0.04 in1.0 mm
07:45 PM 49.1°F9.5°C 38.2°F3.4°C 66% Calm Calm 2.2 mph3.5 kmh 29.75 in1007.5 mb 0.00 in0.0 mm 0.00 in0.0 mm 0.04 in1.0 mm
08:00 PM 48.2°F9.0°C 38.1°F3.4°C 68% 2.2 mph NE3.5 kmh NE 3.1 mph5.0 kmh 29.75 in1007.5 mb 0.00 in0.0 mm 0.00 in0.0 mm 0.04 in1.0 mm
08:15 PM 47.3°F8.5°C 38.0°F3.3°C 70% Calm Calm 2.2 mph3.5 kmh 29.75 in1007.5 mb 0.00 in0.0 mm 0.00 in0.0 mm 0.04 in1.0 mm
08:30 PM 46.6°F8.1°C 37.3°F2.9°C 70% 1.6 mph NE2.6 kmh NE 3.1 mph5.0 kmh 29.75 in1007.5 mb 0.00 in0.0 mm 0.00 in0.0 mm 0.04 in1.0 mm
08:45 PM 46.0°F7.8°C 36.8°F2.7°C 70% Calm Calm 2.2 mph3.5 kmh 29.75 in1007.5 mb 0.00 in0.0 mm 0.00 in0.0 mm 0.04 in1.0 mm
09:00 PM 45.9°F7.7°C 37.0°F2.8°C 71% 2.2 mph ENE3.5 kmh ENE 3.8 mph6.1 kmh 29.75 in1007.5 mb 0.00 in0.0 mm 0.00 in0.0 mm 0.04 in1.0 mm
09:15 PM 46.4°F8.0°C 37.1°F2.8°C 70% 2.2 mph ENE3.5 kmh ENE 3.8 mph6.1 kmh 29.74 in1007.1 mb 0.00 in0.0 mm 0.00 in0.0 mm 0.04 in1.0 mm
09:30 PM 47.3°F8.5°C 36.5°F2.5°C 66% 2.2 mph ENE3.5 kmh ENE 4.5 mph7.2 kmh 29.75 in1007.5 mb 0.00 in0.0 mm 0.00 in0.0 mm 0.04 in1.0 mm
09:45 PM 47.8°F8.8°C 36.2°F2.3°C 64% 1.6 mph E2.6 kmh E 5.4 mph8.7 kmh 29.74 in1007.1 mb 0.00 in0.0 mm 0.00 in0.0 mm 0.04 in1.0 mm
10:00 PM 47.8°F8.8°C 35.8°F2.1°C 63% 1.6 mph E2.6 kmh E 3.8 mph6.1 kmh 29.74 in1007.1 mb 0.00 in0.0 mm 0.00 in0.0 mm 0.04 in1.0 mm
10:15 PM 47.7°F8.7°C 36.1°F2.3°C 64% 1.6 mph ESE2.6 kmh ESE 4.5 mph7.2 kmh 29.74 in1007.1 mb 0.00 in0.0 mm 0.00 in0.0 mm 0.04 in1.0 mm
10:30 PM 47.5°F8.6°C 36.3°F2.4°C 65% 2.2 mph ESE3.5 kmh ESE 3.1 mph5.0 kmh 29.74 in1007.1 mb 0.00 in0.0 mm 0.00 in0.0 mm 0.04 in1.0 mm
10:45 PM 47.1°F8.4°C 36.3°F2.4°C 66% 1.6 mph E2.6 kmh E 3.1 mph5.0 kmh 29.74 in1007.1 mb 0.00 in0.0 mm 0.00 in0.0 mm 0.04 in1.0 mm
11:00 PM 46.8°F8.2°C 36.4°F2.4°C 67% 1.6 mph SE2.6 kmh SE 2.2 mph3.5 kmh 29.74 in1007.1 mb 0.00 in0.0 mm 0.00 in0.0 mm 0.04 in1.0 mm
11:15 PM 46.4°F8.0°C 36.8°F2.7°C 69% 2.2 mph E3.5 kmh E 3.1 mph5.0 kmh 29.74 in1007.1 mb 0.00 in0.0 mm 0.00 in0.0 mm 0.04 in1.0 mm
11:30 PM 46.2°F7.9°C 37.0°F2.8°C 70% 1.6 mph SE2.6 kmh SE 3.8 mph6.1 kmh 29.73 in1006.8 mb 0.00 in0.0 mm 0.00 in0.0 mm 0.04 in1.0 mm
11:45 PM 46.0°F7.8°C 36.8°F2.7°C 70% 2.2 mph E3.5 kmh E 3.8 mph6.1 kmh 29.73 in1006.8 mb 0.00 in0.0 mm 0.00 in0.0 mm 0.04 in1.0 mm